Jose de San Martin, Argentina
Current Conditions -  °F | °C
As of 1:00 PM on Tuesday 21 Oct 2014 (Local Time) from SCAP Reporting Station
Broken Clouds Broken Clouds  
Wind Chill: 59°   Ceiling: 3900
Heat Index: 59°   Visibility: NA
Dew Point: 48°   Wind: 15mph
Humidity: 67%   Direction: 210°SSW
Pressure: 29.94"   Gusts: 28mph
Location:  44.03°S, 70.48°W
Report Text: SCAP 211600Z AUTO 21013G24KT 160V240 //// // FEW020 BKN03915/09 Q1014
Loading
Personal Weather Stations






























Interactive Weather Map
Tropical Storm Tracking
New forecast layout! Learn more

10-Day Weather Forecast

Advertisements
Track Severe Weather on mobile